Hiseville, Kentucky
Current Conditions -  °F | °C
As of 12:35 PM on Saturday 20 Dec 2014 (Local Time) from KGLW Reporting Station
Overcast Overcast  
Wind Chill: 41°   Ceiling: 5000
Heat Index: 41°   Visibility: 10mi
Dew Point: 27°   Wind: 0mph
Humidity: 58%   Direction: NA
Pressure: 30.23"   Gusts: NA
Location:  37.1°N, 85.81°W
Report Text: KGLW 201835Z AUTO 00000KT 10SM OVC050 05/M03 A3023 RMK AO2 T00501027
Loading
Personal Weather Stations






























Interactive Weather Map New forecast layout! Learn more

10-Day Weather Forecast

Advertisements
Track Severe Weather on mobile